sensor_id;sensor_type;location;lat;lon;timestamp;P1;durP1;ratioP1;P2;durP2;ratioP2
72404;SDS011;60395;52.020;113.548;2023-05-15T00:01:33;2.15;;;1.52;;
72404;SDS011;60395;52.020;113.548;2023-05-15T00:04:37;3.53;;;1.50;;
72404;SDS011;60395;52.020;113.548;2023-05-15T00:07:40;5.72;;;1.52;;
72404;SDS011;60395;52.020;113.548;2023-05-15T00:10:44;5.73;;;1.50;;
72404;SDS011;60395;52.020;113.548;2023-05-15T00:14:01;4.38;;;1.60;;
72404;SDS011;60395;52.020;113.548;2023-05-15T00:17:04;4.13;;;1.40;;
72404;SDS011;60395;52.020;113.548;2023-05-15T00:20:07;2.93;;;1.30;;
72404;SDS011;60395;52.020;113.548;2023-05-15T00:23:11;2.35;;;1.38;;
72404;SDS011;60395;52.020;113.548;2023-05-15T00:26:14;3.10;;;1.05;;
72404;SDS011;60395;52.020;113.548;2023-05-15T00:29:18;3.80;;;1.23;;
72404;SDS011;60395;52.020;113.548;2023-05-15T00:32:21;2.33;;;1.00;;
72404;SDS011;60395;52.020;113.548;2023-05-15T00:38:29;2.92;;;1.10;;
72404;SDS011;60395;52.020;113.548;2023-05-15T00:41:37;2.35;;;1.13;;
72404;SDS011;60395;52.020;113.548;2023-05-15T00:44:42;1.92;;;1.10;;
72404;SDS011;60395;52.020;113.548;2023-05-15T00:47:46;2.90;;;1.20;;
72404;SDS011;60395;52.020;113.548;2023-05-15T00:50:51;3.17;;;1.10;;
72404;SDS011;60395;52.020;113.548;2023-05-15T00:53:55;2.23;;;1.47;;
72404;SDS011;60395;52.020;113.548;2023-05-15T00:57:00;2.17;;;1.15;;
72404;SDS011;60395;52.020;113.548;2023-05-15T01:00:07;2.60;;;1.27;;
72404;SDS011;60395;52.020;113.548;2023-05-15T01:03:11;1.40;;;1.00;;
72404;SDS011;60395;52.020;113.548;2023-05-15T01:06:15;3.80;;;1.80;;
72404;SDS011;60395;52.020;113.548;2023-05-15T01:09:18;2.67;;;1.30;;
72404;SDS011;60395;52.020;113.548;2023-05-15T01:12:25;3.55;;;1.25;;
72404;SDS011;60395;52.020;113.548;2023-05-15T01:15:31;2.60;;;1.30;;
72404;SDS011;60395;52.020;113.548;2023-05-15T01:18:34;2.70;;;1.27;;
72404;SDS011;60395;52.020;113.548;2023-05-15T01:25:05;2.25;;;1.15;;
72404;SDS011;60395;52.020;113.548;2023-05-15T01:28:29;4.20;;;1.15;;
72404;SDS011;60395;52.020;113.548;2023-05-15T01:31:35;3.22;;;0.82;;
72404;SDS011;60395;52.020;113.548;2023-05-15T01:34:51;2.67;;;1.00;;
72404;SDS011;60395;52.020;113.548;2023-05-15T01:38:14;1.25;;;0.77;;
72404;SDS011;60395;52.020;113.548;2023-05-15T01:41:35;3.55;;;0.90;;
72404;SDS011;60395;52.020;113.548;2023-05-15T01:44:53;1.33;;;0.90;;
72404;SDS011;60395;52.020;113.548;2023-05-15T01:48:00;7.45;;;1.08;;
72404;SDS011;60395;52.020;113.548;2023-05-15T01:51:07;4.55;;;1.40;;
72404;SDS011;60395;52.020;113.548;2023-05-15T01:54:13;4.32;;;1.40;;
72404;SDS011;60395;52.020;113.548;2023-05-15T01:57:18;1.63;;;1.13;;
72404;SDS011;60395;52.020;113.548;2023-05-15T02:00:24;4.30;;;1.20;;
72404;SDS011;60395;52.020;113.548;2023-05-15T02:03:27;2.10;;;1.02;;
72404;SDS011;60395;52.020;113.548;2023-05-15T02:06:35;2.53;;;1.10;;
72404;SDS011;60395;52.020;113.548;2023-05-15T02:09:39;2.03;;;1.30;;
72404;SDS011;60395;52.020;113.548;2023-05-15T02:12:44;4.40;;;0.95;;
72404;SDS011;60395;52.020;113.548;2023-05-15T02:15:48;1.85;;;0.93;;
72404;SDS011;60395;52.020;113.548;2023-05-15T02:18:51;2.00;;;1.15;;
72404;SDS011;60395;52.020;113.548;2023-05-15T02:21:56;4.72;;;1.20;;
72404;SDS011;60395;52.020;113.548;2023-05-15T02:25:00;1.17;;;0.82;;
72404;SDS011;60395;52.020;113.548;2023-05-15T02:28:04;1.20;;;0.80;;
72404;SDS011;60395;52.020;113.548;2023-05-15T02:31:30;1.55;;;0.90;;
72404;SDS011;60395;52.020;113.548;2023-05-15T02:38:19;3.30;;;1.25;;
72404;SDS011;60395;52.020;113.548;2023-05-15T02:41:27;1.60;;;1.10;;
72404;SDS011;60395;52.020;113.548;2023-05-15T02:44:33;5.32;;;1.20;;
72404;SDS011;60395;52.020;113.548;2023-05-15T02:47:38;0.90;;;0.70;;
72404;SDS011;60395;52.020;113.548;2023-05-15T02:50:42;3.08;;;0.95;;
72404;SDS011;60395;52.020;113.548;2023-05-15T02:53:45;7.15;;;1.05;;
72404;SDS011;60395;52.020;113.548;2023-05-15T02:56:49;6.03;;;0.95;;
72404;SDS011;60395;52.020;113.548;2023-05-15T02:59:53;1.70;;;1.20;;
72404;SDS011;60395;52.020;113.548;2023-05-15T03:06:00;4.28;;;1.00;;
72404;SDS011;60395;52.020;113.548;2023-05-15T03:09:04;6.25;;;1.25;;
72404;SDS011;60395;52.020;113.548;2023-05-15T03:12:08;1.92;;;1.00;;
72404;SDS011;60395;52.020;113.548;2023-05-15T03:15:12;6.72;;;2.72;;
72404;SDS011;60395;52.020;113.548;2023-05-15T03:18:15;6.55;;;1.60;;
72404;SDS011;60395;52.020;113.548;2023-05-15T03:21:20;3.08;;;1.58;;
72404;SDS011;60395;52.020;113.548;2023-05-15T03:24:24;6.90;;;2.20;;
72404;SDS011;60395;52.020;113.548;2023-05-15T03:27:27;9.88;;;1.30;;
72404;SDS011;60395;52.020;113.548;2023-05-15T03:30:30;1.50;;;0.90;;
72404;SDS011;60395;52.020;113.548;2023-05-15T03:33:34;1.70;;;0.82;;
72404;SDS011;60395;52.020;113.548;2023-05-15T03:36:37;1.65;;;1.05;;
72404;SDS011;60395;52.020;113.548;2023-05-15T03:39:40;3.53;;;1.17;;
72404;SDS011;60395;52.020;113.548;2023-05-15T03:42:45;10.85;;;1.27;;
72404;SDS011;60395;52.020;113.548;2023-05-15T03:45:48;3.03;;;1.05;;
72404;SDS011;60395;52.020;113.548;2023-05-15T03:48:51;6.65;;;1.00;;
72404;SDS011;60395;52.020;113.548;2023-05-15T03:51:56;2.20;;;1.20;;
72404;SDS011;60395;52.020;113.548;2023-05-15T03:54:59;1.00;;;0.60;;
72404;SDS011;60395;52.020;113.548;2023-05-15T03:58:03;2.88;;;1.00;;
72404;SDS011;60395;52.020;113.548;2023-05-15T04:01:07;0.85;;;0.60;;
72404;SDS011;60395;52.020;113.548;2023-05-15T04:04:10;2.85;;;0.70;;
72404;SDS011;60395;52.020;113.548;2023-05-15T04:07:14;2.72;;;0.90;;
72404;SDS011;60395;52.020;113.548;2023-05-15T04:10:17;1.85;;;1.02;;
72404;SDS011;60395;52.020;113.548;2023-05-15T04:13:20;3.67;;;0.73;;
72404;SDS011;60395;52.020;113.548;2023-05-15T04:16:24;1.63;;;0.77;;
72404;SDS011;60395;52.020;113.548;2023-05-15T04:19:27;2.53;;;1.15;;
72404;SDS011;60395;52.020;113.548;2023-05-15T04:22:31;1.17;;;0.70;;
72404;SDS011;60395;52.020;113.548;2023-05-15T04:25:34;2.22;;;1.20;;
72404;SDS011;60395;52.020;113.548;2023-05-15T04:28:37;3.05;;;0.85;;
72404;SDS011;60395;52.020;113.548;2023-05-15T04:31:50;2.13;;;0.95;;
72404;SDS011;60395;52.020;113.548;2023-05-15T04:34:53;3.22;;;1.13;;
72404;SDS011;60395;52.020;113.548;2023-05-15T04:37:56;2.38;;;1.17;;
72404;SDS011;60395;52.020;113.548;2023-05-15T04:41:00;3.58;;;1.42;;
72404;SDS011;60395;52.020;113.548;2023-05-15T04:44:03;1.63;;;0.90;;
72404;SDS011;60395;52.020;113.548;2023-05-15T04:47:06;1.35;;;0.80;;
72404;SDS011;60395;52.020;113.548;2023-05-15T04:50:09;1.50;;;1.00;;
72404;SDS011;60395;52.020;113.548;2023-05-15T04:53:13;1.58;;;1.08;;
72404;SDS011;60395;52.020;113.548;2023-05-15T04:56:16;2.83;;;0.82;;
72404;SDS011;60395;52.020;113.548;2023-05-15T04:59:19;5.90;;;1.00;;
72404;SDS011;60395;52.020;113.548;2023-05-15T05:02:22;2.03;;;0.85;;
72404;SDS011;60395;52.020;113.548;2023-05-15T05:05:26;1.23;;;0.80;;
72404;SDS011;60395;52.020;113.548;2023-05-15T05:08:30;2.05;;;0.70;;
72404;SDS011;60395;52.020;113.548;2023-05-15T05:11:33;2.28;;;0.80;;
72404;SDS011;60395;52.020;113.548;2023-05-15T05:14:36;2.35;;;1.00;;
72404;SDS011;60395;52.020;113.548;2023-05-15T05:17:42;1.35;;;1.05;;
72404;SDS011;60395;52.020;113.548;2023-05-15T05:20:45;5.40;;;1.10;;
72404;SDS011;60395;52.020;113.548;2023-05-15T05:23:49;7.43;;;1.05;;
72404;SDS011;60395;52.020;113.548;2023-05-15T05:26:52;5.13;;;1.38;;
72404;SDS011;60395;52.020;113.548;2023-05-15T05:29:56;3.22;;;0.82;;
72404;SDS011;60395;52.020;113.548;2023-05-15T05:32:59;1.67;;;0.90;;
72404;SDS011;60395;52.020;113.548;2023-05-15T05:36:02;3.55;;;1.05;;
72404;SDS011;60395;52.020;113.548;2023-05-15T05:39:06;1.60;;;1.10;;
72404;SDS011;60395;52.020;113.548;2023-05-15T05:42:10;1.20;;;0.88;;
72404;SDS011;60395;52.020;113.548;2023-05-15T05:45:13;4.95;;;1.02;;
72404;SDS011;60395;52.020;113.548;2023-05-15T05:48:16;8.13;;;1.50;;
72404;SDS011;60395;52.020;113.548;2023-05-15T05:51:20;4.50;;;0.90;;
72404;SDS011;60395;52.020;113.548;2023-05-15T05:54:23;2.30;;;0.93;;
72404;SDS011;60395;52.020;113.548;2023-05-15T05:57:26;1.33;;;0.98;;
72404;SDS011;60395;52.020;113.548;2023-05-15T06:00:29;2.28;;;0.95;;
72404;SDS011;60395;52.020;113.548;2023-05-15T06:03:33;2.33;;;0.93;;
72404;SDS011;60395;52.020;113.548;2023-05-15T06:06:37;2.95;;;0.90;;
72404;SDS011;60395;52.020;113.548;2023-05-15T06:09:40;2.60;;;0.85;;
72404;SDS011;60395;52.020;113.548;2023-05-15T06:12:43;1.20;;;0.80;;
72404;SDS011;60395;52.020;113.548;2023-05-15T06:15:47;1.10;;;0.47;;
72404;SDS011;60395;52.020;113.548;2023-05-15T06:18:50;1.67;;;0.80;;
72404;SDS011;60395;52.020;113.548;2023-05-15T06:21:54;1.33;;;0.73;;
72404;SDS011;60395;52.020;113.548;2023-05-15T06:24:57;3.30;;;1.00;;
72404;SDS011;60395;52.020;113.548;2023-05-15T06:28:01;1.10;;;0.60;;
72404;SDS011;60395;52.020;113.548;2023-05-15T06:31:04;1.00;;;0.80;;
72404;SDS011;60395;52.020;113.548;2023-05-15T06:34:08;1.50;;;0.93;;
72404;SDS011;60395;52.020;113.548;2023-05-15T06:37:11;1.63;;;0.80;;
72404;SDS011;60395;52.020;113.548;2023-05-15T06:40:14;4.60;;;1.00;;
72404;SDS011;60395;52.020;113.548;2023-05-15T06:43:18;1.67;;;1.00;;
72404;SDS011;60395;52.020;113.548;2023-05-15T06:46:21;2.65;;;0.90;;
72404;SDS011;60395;52.020;113.548;2023-05-15T06:49:25;2.10;;;0.90;;
72404;SDS011;60395;52.020;113.548;2023-05-15T06:52:29;2.05;;;1.05;;
72404;SDS011;60395;52.020;113.548;2023-05-15T06:55:32;1.65;;;0.90;;
72404;SDS011;60395;52.020;113.548;2023-05-15T06:58:37;2.40;;;1.35;;
72404;SDS011;60395;52.020;113.548;2023-05-15T07:01:41;3.40;;;0.95;;
72404;SDS011;60395;52.020;113.548;2023-05-15T07:04:44;1.70;;;1.00;;
72404;SDS011;60395;52.020;113.548;2023-05-15T07:07:47;2.13;;;1.10;;
72404;SDS011;60395;52.020;113.548;2023-05-15T07:10:51;3.03;;;1.00;;
72404;SDS011;60395;52.020;113.548;2023-05-15T07:13:54;4.43;;;1.40;;
72404;SDS011;60395;52.020;113.548;2023-05-15T07:16:57;2.10;;;1.20;;
72404;SDS011;60395;52.020;113.548;2023-05-15T07:20:01;5.97;;;0.95;;
72404;SDS011;60395;52.020;113.548;2023-05-15T07:23:07;2.90;;;0.90;;
72404;SDS011;60395;52.020;113.548;2023-05-15T07:26:12;1.52;;;0.93;;
72404;SDS011;60395;52.020;113.548;2023-05-15T07:29:28;2.13;;;1.10;;
72404;SDS011;60395;52.020;113.548;2023-05-15T07:32:31;4.97;;;1.27;;
72404;SDS011;60395;52.020;113.548;2023-05-15T07:35:35;4.50;;;1.10;;
72404;SDS011;60395;52.020;113.548;2023-05-15T07:38:38;3.97;;;1.15;;
72404;SDS011;60395;52.020;113.548;2023-05-15T07:41:41;1.73;;;1.10;;
72404;SDS011;60395;52.020;113.548;2023-05-15T07:44:45;1.20;;;0.82;;
72404;SDS011;60395;52.020;113.548;2023-05-15T07:47:50;3.22;;;1.20;;
72404;SDS011;60395;52.020;113.548;2023-05-15T07:50:53;1.70;;;1.02;;
72404;SDS011;60395;52.020;113.548;2023-05-15T07:53:58;2.40;;;1.23;;
72404;SDS011;60395;52.020;113.548;2023-05-15T07:57:02;1.25;;;0.93;;
72404;SDS011;60395;52.020;113.548;2023-05-15T08:00:06;2.28;;;0.90;;
72404;SDS011;60395;52.020;113.548;2023-05-15T08:03:14;4.47;;;1.48;;
72404;SDS011;60395;52.020;113.548;2023-05-15T08:06:18;3.17;;;1.30;;
72404;SDS011;60395;52.020;113.548;2023-05-15T08:09:22;1.73;;;1.10;;
72404;SDS011;60395;52.020;113.548;2023-05-15T08:12:25;3.92;;;1.10;;
72404;SDS011;60395;52.020;113.548;2023-05-15T08:15:29;4.60;;;1.15;;
72404;SDS011;60395;52.020;113.548;2023-05-15T08:18:32;1.63;;;1.10;;
72404;SDS011;60395;52.020;113.548;2023-05-15T08:21:35;2.75;;;1.30;;
72404;SDS011;60395;52.020;113.548;2023-05-15T08:24:39;3.95;;;2.38;;
72404;SDS011;60395;52.020;113.548;2023-05-15T08:27:43;4.30;;;1.30;;
72404;SDS011;60395;52.020;113.548;2023-05-15T08:30:46;3.58;;;1.17;;
72404;SDS011;60395;52.020;113.548;2023-05-15T08:33:50;13.37;;;1.60;;
72404;SDS011;60395;52.020;113.548;2023-05-15T08:36:53;2.53;;;1.42;;
72404;SDS011;60395;52.020;113.548;2023-05-15T08:39:57;3.33;;;1.08;;
72404;SDS011;60395;52.020;113.548;2023-05-15T08:43:04;2.92;;;1.50;;
72404;SDS011;60395;52.020;113.548;2023-05-15T08:46:17;2.70;;;1.55;;
72404;SDS011;60395;52.020;113.548;2023-05-15T08:53:00;1.90;;;1.23;;
72404;SDS011;60395;52.020;113.548;2023-05-15T08:56:04;9.43;;;2.08;;
72404;SDS011;60395;52.020;113.548;2023-05-15T08:59:07;6.03;;;2.55;;
72404;SDS011;60395;52.020;113.548;2023-05-15T09:02:11;1.95;;;1.10;;
72404;SDS011;60395;52.020;113.548;2023-05-15T09:05:14;2.10;;;1.48;;
72404;SDS011;60395;52.020;113.548;2023-05-15T09:08:18;3.15;;;1.10;;
72404;SDS011;60395;52.020;113.548;2023-05-15T09:11:25;2.70;;;1.20;;
72404;SDS011;60395;52.020;113.548;2023-05-15T09:14:29;3.95;;;1.40;;
72404;SDS011;60395;52.020;113.548;2023-05-15T09:17:32;5.93;;;1.75;;
72404;SDS011;60395;52.020;113.548;2023-05-15T09:20:36;2.10;;;1.27;;
72404;SDS011;60395;52.020;113.548;2023-05-15T09:23:40;3.08;;;1.50;;
72404;SDS011;60395;52.020;113.548;2023-05-15T09:26:44;4.45;;;1.60;;
72404;SDS011;60395;52.020;113.548;2023-05-15T09:29:48;7.45;;;1.90;;
72404;SDS011;60395;52.020;113.548;2023-05-15T09:32:59;1.50;;;1.20;;
72404;SDS011;60395;52.020;113.548;2023-05-15T09:36:05;4.13;;;1.10;;
72404;SDS011;60395;52.020;113.548;2023-05-15T09:42:13;3.53;;;1.50;;
72404;SDS011;60395;52.020;113.548;2023-05-15T09:48:20;3.80;;;1.55;;
72404;SDS011;60395;52.020;113.548;2023-05-15T09:51:23;4.20;;;0.90;;
72404;SDS011;60395;52.020;113.548;2023-05-15T09:54:29;3.47;;;1.48;;
72404;SDS011;60395;52.020;113.548;2023-05-15T09:57:33;5.05;;;1.50;;
72404;SDS011;60395;52.020;113.548;2023-05-15T10:00:37;4.90;;;1.92;;
72404;SDS011;60395;52.020;113.548;2023-05-15T10:04:03;5.57;;;2.85;;
72404;SDS011;60395;52.020;113.548;2023-05-15T10:07:07;5.28;;;2.40;;
72404;SDS011;60395;52.020;113.548;2023-05-15T10:10:11;5.88;;;2.83;;
72404;SDS011;60395;52.020;113.548;2023-05-15T10:13:15;7.70;;;2.03;;
72404;SDS011;60395;52.020;113.548;2023-05-15T10:16:19;2.10;;;0.95;;
72404;SDS011;60395;52.020;113.548;2023-05-15T10:19:24;4.70;;;0.98;;
72404;SDS011;60395;52.020;113.548;2023-05-15T10:22:36;3.30;;;1.60;;
72404;SDS011;60395;52.020;113.548;2023-05-15T10:26:01;4.65;;;1.60;;
72404;SDS011;60395;52.020;113.548;2023-05-15T10:29:11;3.75;;;1.30;;
72404;SDS011;60395;52.020;113.548;2023-05-15T10:32:15;6.30;;;1.60;;
72404;SDS011;60395;52.020;113.548;2023-05-15T10:35:19;4.47;;;1.80;;
72404;SDS011;60395;52.020;113.548;2023-05-15T10:38:23;1.83;;;1.08;;
72404;SDS011;60395;52.020;113.548;2023-05-15T10:41:28;8.82;;;2.58;;
72404;SDS011;60395;52.020;113.548;2023-05-15T10:44:32;5.35;;;2.03;;
72404;SDS011;60395;52.020;113.548;2023-05-15T10:47:36;4.00;;;1.75;;
72404;SDS011;60395;52.020;113.548;2023-05-15T10:50:41;7.18;;;2.75;;
72404;SDS011;60395;52.020;113.548;2023-05-15T10:53:45;8.77;;;2.58;;
72404;SDS011;60395;52.020;113.548;2023-05-15T10:56:48;5.95;;;2.53;;
72404;SDS011;60395;52.020;113.548;2023-05-15T10:59:53;9.40;;;4.30;;
72404;SDS011;60395;52.020;113.548;2023-05-15T11:02:56;20.80;;;9.00;;
72404;SDS011;60395;52.020;113.548;2023-05-15T11:06:07;12.50;;;5.22;;
72404;SDS011;60395;52.020;113.548;2023-05-15T11:16:00;7.60;;;3.28;;
72404;SDS011;60395;52.020;113.548;2023-05-15T11:19:09;24.42;;;10.10;;
72404;SDS011;60395;52.020;113.548;2023-05-15T11:25:56;15.18;;;6.70;;
72404;SDS011;60395;52.020;113.548;2023-05-15T11:29:15;14.02;;;5.82;;
72404;SDS011;60395;52.020;113.548;2023-05-15T11:35:43;8.65;;;2.83;;
72404;SDS011;60395;52.020;113.548;2023-05-15T11:38:51;7.72;;;2.92;;
72404;SDS011;60395;52.020;113.548;2023-05-15T11:41:55;4.95;;;2.38;;
72404;SDS011;60395;52.020;113.548;2023-05-15T11:45:01;13.32;;;2.70;;
72404;SDS011;60395;52.020;113.548;2023-05-15T11:48:07;5.30;;;2.90;;
72404;SDS011;60395;52.020;113.548;2023-05-15T11:51:16;7.60;;;3.28;;
72404;SDS011;60395;52.020;113.548;2023-05-15T11:54:31;12.20;;;4.93;;
72404;SDS011;60395;52.020;113.548;2023-05-15T11:57:36;7.93;;;3.28;;
72404;SDS011;60395;52.020;113.548;2023-05-15T12:00:40;11.70;;;3.47;;
72404;SDS011;60395;52.020;113.548;2023-05-15T12:03:48;8.95;;;4.07;;
72404;SDS011;60395;52.020;113.548;2023-05-15T12:06:53;8.68;;;3.70;;
72404;SDS011;60395;52.020;113.548;2023-05-15T12:09:56;7.70;;;4.00;;
72404;SDS011;60395;52.020;113.548;2023-05-15T12:13:00;10.77;;;4.35;;
72404;SDS011;60395;52.020;113.548;2023-05-15T12:16:07;12.40;;;3.70;;
72404;SDS011;60395;52.020;113.548;2023-05-15T12:19:10;10.02;;;3.97;;
72404;SDS011;60395;52.020;113.548;2023-05-15T12:22:14;10.93;;;3.70;;
72404;SDS011;60395;52.020;113.548;2023-05-15T12:25:17;7.93;;;3.95;;
72404;SDS011;60395;52.020;113.548;2023-05-15T12:28:21;6.10;;;3.60;;
72404;SDS011;60395;52.020;113.548;2023-05-15T12:31:24;11.23;;;4.03;;
72404;SDS011;60395;52.020;113.548;2023-05-15T12:34:28;7.97;;;4.15;;
72404;SDS011;60395;52.020;113.548;2023-05-15T12:37:32;14.63;;;3.58;;
72404;SDS011;60395;52.020;113.548;2023-05-15T12:40:37;9.63;;;4.10;;
72404;SDS011;60395;52.020;113.548;2023-05-15T12:43:41;8.18;;;4.25;;
72404;SDS011;60395;52.020;113.548;2023-05-15T12:46:45;9.65;;;4.32;;
72404;SDS011;60395;52.020;113.548;2023-05-15T12:49:49;6.20;;;3.20;;
72404;SDS011;60395;52.020;113.548;2023-05-15T12:52:57;10.90;;;3.67;;
72404;SDS011;60395;52.020;113.548;2023-05-15T12:56:04;8.95;;;3.30;;
72404;SDS011;60395;52.020;113.548;2023-05-15T12:59:07;7.28;;;3.00;;
72404;SDS011;60395;52.020;113.548;2023-05-15T13:02:12;6.77;;;2.93;;
72404;SDS011;60395;52.020;113.548;2023-05-15T13:05:15;5.22;;;2.60;;
72404;SDS011;60395;52.020;113.548;2023-05-15T13:08:19;5.68;;;2.45;;
72404;SDS011;60395;52.020;113.548;2023-05-15T13:11:23;6.50;;;3.10;;
72404;SDS011;60395;52.020;113.548;2023-05-15T13:14:33;11.77;;;2.88;;
72404;SDS011;60395;52.020;113.548;2023-05-15T13:17:36;6.68;;;2.22;;
72404;SDS011;60395;52.020;113.548;2023-05-15T13:23:52;9.77;;;3.10;;
72404;SDS011;60395;52.020;113.548;2023-05-15T13:26:56;7.47;;;3.33;;
72404;SDS011;60395;52.020;113.548;2023-05-15T13:29:59;7.90;;;4.40;;
72404;SDS011;60395;52.020;113.548;2023-05-15T13:33:03;6.95;;;3.70;;
72404;SDS011;60395;52.020;113.548;2023-05-15T13:36:07;9.00;;;3.92;;
72404;SDS011;60395;52.020;113.548;2023-05-15T13:39:10;9.60;;;3.40;;
72404;SDS011;60395;52.020;113.548;2023-05-15T13:42:13;10.98;;;4.53;;
72404;SDS011;60395;52.020;113.548;2023-05-15T13:45:16;10.27;;;4.38;;
72404;SDS011;60395;52.020;113.548;2023-05-15T13:48:20;11.02;;;4.97;;
72404;SDS011;60395;52.020;113.548;2023-05-15T13:51:24;10.57;;;4.00;;
72404;SDS011;60395;52.020;113.548;2023-05-15T13:54:27;11.20;;;4.22;;
72404;SDS011;60395;52.020;113.548;2023-05-15T13:57:31;8.35;;;3.92;;
72404;SDS011;60395;52.020;113.548;2023-05-15T14:00:34;9.60;;;4.35;;
72404;SDS011;60395;52.020;113.548;2023-05-15T14:03:38;9.85;;;3.60;;
72404;SDS011;60395;52.020;113.548;2023-05-15T14:06:41;6.68;;;3.08;;
72404;SDS011;60395;52.020;113.548;2023-05-15T14:09:45;9.35;;;2.95;;
72404;SDS011;60395;52.020;113.548;2023-05-15T14:12:48;5.13;;;2.50;;
72404;SDS011;60395;52.020;113.548;2023-05-15T14:15:52;11.25;;;3.10;;
72404;SDS011;60395;52.020;113.548;2023-05-15T14:18:56;5.75;;;2.85;;
72404;SDS011;60395;52.020;113.548;2023-05-15T14:21:59;6.05;;;2.88;;
72404;SDS011;60395;52.020;113.548;2023-05-15T14:25:03;6.25;;;2.97;;
72404;SDS011;60395;52.020;113.548;2023-05-15T14:28:08;5.70;;;3.03;;
72404;SDS011;60395;52.020;113.548;2023-05-15T14:31:11;5.45;;;2.38;;
72404;SDS011;60395;52.020;113.548;2023-05-15T14:34:15;4.32;;;1.98;;
72404;SDS011;60395;52.020;113.548;2023-05-15T14:37:20;3.95;;;2.33;;
72404;SDS011;60395;52.020;113.548;2023-05-15T14:40:23;3.72;;;2.22;;
72404;SDS011;60395;52.020;113.548;2023-05-15T14:43:26;4.05;;;2.42;;
72404;SDS011;60395;52.020;113.548;2023-05-15T14:46:30;4.30;;;2.38;;
72404;SDS011;60395;52.020;113.548;2023-05-15T14:49:34;5.57;;;2.60;;
72404;SDS011;60395;52.020;113.548;2023-05-15T14:52:38;6.57;;;3.05;;
72404;SDS011;60395;52.020;113.548;2023-05-15T14:55:41;10.90;;;5.07;;
72404;SDS011;60395;52.020;113.548;2023-05-15T14:58:45;6.80;;;3.65;;
72404;SDS011;60395;52.020;113.548;2023-05-15T15:01:48;15.82;;;6.10;;
72404;SDS011;60395;52.020;113.548;2023-05-15T15:04:52;16.27;;;5.80;;
72404;SDS011;60395;52.020;113.548;2023-05-15T15:11:08;12.73;;;5.75;;
72404;SDS011;60395;52.020;113.548;2023-05-15T15:14:12;12.07;;;5.72;;
72404;SDS011;60395;52.020;113.548;2023-05-15T15:17:15;17.83;;;6.32;;
72404;SDS011;60395;52.020;113.548;2023-05-15T15:20:19;30.93;;;8.87;;
72404;SDS011;60395;52.020;113.548;2023-05-15T15:23:23;17.08;;;7.97;;
72404;SDS011;60395;52.020;113.548;2023-05-15T15:26:26;16.08;;;7.57;;
72404;SDS011;60395;52.020;113.548;2023-05-15T15:29:29;19.88;;;8.38;;
72404;SDS011;60395;52.020;113.548;2023-05-15T15:32:33;23.10;;;9.43;;
72404;SDS011;60395;52.020;113.548;2023-05-15T15:38:41;24.05;;;9.77;;
72404;SDS011;60395;52.020;113.548;2023-05-15T15:41:45;20.02;;;9.00;;
72404;SDS011;60395;52.020;113.548;2023-05-15T15:44:48;21.20;;;8.90;;
72404;SDS011;60395;52.020;113.548;2023-05-15T15:47:51;21.27;;;9.45;;
72404;SDS011;60395;52.020;113.548;2023-05-15T15:50:54;27.90;;;9.82;;
72404;SDS011;60395;52.020;113.548;2023-05-15T15:53:58;22.88;;;9.25;;
72404;SDS011;60395;52.020;113.548;2023-05-15T15:57:02;21.00;;;8.82;;
72404;SDS011;60395;52.020;113.548;2023-05-15T16:00:05;18.23;;;8.30;;
72404;SDS011;60395;52.020;113.548;2023-05-15T16:03:09;21.98;;;8.80;;
72404;SDS011;60395;52.020;113.548;2023-05-15T16:06:13;23.85;;;9.15;;
72404;SDS011;60395;52.020;113.548;2023-05-15T16:09:16;20.08;;;8.32;;
72404;SDS011;60395;52.020;113.548;2023-05-15T16:12:21;21.63;;;8.95;;
72404;SDS011;60395;52.020;113.548;2023-05-15T16:15:24;20.85;;;9.05;;
72404;SDS011;60395;52.020;113.548;2023-05-15T16:18:27;21.10;;;8.68;;
72404;SDS011;60395;52.020;113.548;2023-05-15T16:21:33;18.05;;;7.88;;
72404;SDS011;60395;52.020;113.548;2023-05-15T16:24:37;20.20;;;7.18;;
72404;SDS011;60395;52.020;113.548;2023-05-15T16:27:42;19.80;;;7.88;;
72404;SDS011;60395;52.020;113.548;2023-05-15T16:30:45;23.02;;;8.52;;
72404;SDS011;60395;52.020;113.548;2023-05-15T16:33:51;14.93;;;6.55;;
72404;SDS011;60395;52.020;113.548;2023-05-15T16:36:54;15.32;;;6.40;;
72404;SDS011;60395;52.020;113.548;2023-05-15T16:39:57;18.70;;;6.25;;
72404;SDS011;60395;52.020;113.548;2023-05-15T16:43:00;13.85;;;6.47;;
72404;SDS011;60395;52.020;113.548;2023-05-15T16:46:04;15.48;;;6.13;;
72404;SDS011;60395;52.020;113.548;2023-05-15T16:49:07;20.63;;;6.53;;
72404;SDS011;60395;52.020;113.548;2023-05-15T16:52:10;14.38;;;5.80;;
72404;SDS011;60395;52.020;113.548;2023-05-15T16:55:14;15.48;;;6.05;;
72404;SDS011;60395;52.020;113.548;2023-05-15T16:58:19;17.77;;;6.18;;
72404;SDS011;60395;52.020;113.548;2023-05-15T17:01:22;13.30;;;5.90;;
72404;SDS011;60395;52.020;113.548;2023-05-15T17:04:25;15.00;;;5.88;;
72404;SDS011;60395;52.020;113.548;2023-05-15T17:07:32;12.25;;;4.82;;
72404;SDS011;60395;52.020;113.548;2023-05-15T17:10:35;11.43;;;5.05;;
72404;SDS011;60395;52.020;113.548;2023-05-15T17:13:38;12.23;;;5.20;;
72404;SDS011;60395;52.020;113.548;2023-05-15T17:16:42;11.93;;;5.55;;
72404;SDS011;60395;52.020;113.548;2023-05-15T17:19:46;13.80;;;5.00;;
72404;SDS011;60395;52.020;113.548;2023-05-15T17:22:50;11.73;;;5.20;;
72404;SDS011;60395;52.020;113.548;2023-05-15T17:25:53;10.98;;;5.00;;
72404;SDS011;60395;52.020;113.548;2023-05-15T17:28:56;9.68;;;5.15;;
72404;SDS011;60395;52.020;113.548;2023-05-15T17:32:00;9.93;;;4.57;;
72404;SDS011;60395;52.020;113.548;2023-05-15T17:35:03;12.55;;;4.50;;
72404;SDS011;60395;52.020;113.548;2023-05-15T17:38:07;13.60;;;4.90;;
72404;SDS011;60395;52.020;113.548;2023-05-15T17:41:10;10.73;;;5.10;;
72404;SDS011;60395;52.020;113.548;2023-05-15T17:44:14;10.90;;;4.70;;
72404;SDS011;60395;52.020;113.548;2023-05-15T17:47:17;13.07;;;4.93;;
72404;SDS011;60395;52.020;113.548;2023-05-15T17:50:20;10.70;;;4.32;;
72404;SDS011;60395;52.020;113.548;2023-05-15T17:53:23;12.18;;;4.68;;
72404;SDS011;60395;52.020;113.548;2023-05-15T17:56:27;11.68;;;5.05;;
72404;SDS011;60395;52.020;113.548;2023-05-15T17:59:30;9.00;;;4.30;;
72404;SDS011;60395;52.020;113.548;2023-05-15T18:02:33;10.07;;;4.30;;
72404;SDS011;60395;52.020;113.548;2023-05-15T18:05:37;11.98;;;5.18;;
72404;SDS011;60395;52.020;113.548;2023-05-15T18:08:40;8.50;;;4.45;;
72404;SDS011;60395;52.020;113.548;2023-05-15T18:11:45;8.52;;;3.78;;
72404;SDS011;60395;52.020;113.548;2023-05-15T18:14:49;6.97;;;3.30;;
72404;SDS011;60395;52.020;113.548;2023-05-15T18:17:52;8.25;;;3.42;;
72404;SDS011;60395;52.020;113.548;2023-05-15T18:20:56;6.45;;;2.97;;
72404;SDS011;60395;52.020;113.548;2023-05-15T18:23:59;5.35;;;3.10;;
72404;SDS011;60395;52.020;113.548;2023-05-15T18:27:02;10.10;;;3.55;;
72404;SDS011;60395;52.020;113.548;2023-05-15T18:30:06;9.07;;;3.10;;
72404;SDS011;60395;52.020;113.548;2023-05-15T18:33:10;8.98;;;3.25;;
72404;SDS011;60395;52.020;113.548;2023-05-15T18:36:13;7.57;;;2.60;;
72404;SDS011;60395;52.020;113.548;2023-05-15T18:39:17;7.50;;;2.47;;
72404;SDS011;60395;52.020;113.548;2023-05-15T18:42:21;5.97;;;2.42;;